sensor_id;sensor_type;location;lat;lon;timestamp;temperature;humidity
13808;DHT22;40769;51.512;5.494;2023-04-03T00:01:30;6.80;99.90
13808;DHT22;40769;51.512;5.494;2023-04-03T00:03:56;6.70;99.90
13808;DHT22;40769;51.512;5.494;2023-04-03T00:06:22;6.70;99.90
13808;DHT22;40769;51.512;5.494;2023-04-03T00:08:49;6.70;99.90
13808;DHT22;40769;51.512;5.494;2023-04-03T00:11:15;6.70;99.90
13808;DHT22;40769;51.512;5.494;2023-04-03T00:13:40;6.80;99.90
13808;DHT22;40769;51.512;5.494;2023-04-03T00:16:07;6.80;99.90
13808;DHT22;40769;51.512;5.494;2023-04-03T00:18:34;6.90;99.90
13808;DHT22;40769;51.512;5.494;2023-04-03T00:21:00;7.00;99.90
13808;DHT22;40769;51.512;5.494;2023-04-03T00:23:25;6.70;99.90
13808;DHT22;40769;51.512;5.494;2023-04-03T00:25:52;6.50;99.90
13808;DHT22;40769;51.512;5.494;2023-04-03T00:28:18;6.10;99.90
13808;DHT22;40769;51.512;5.494;2023-04-03T00:30:43;5.80;99.90
13808;DHT22;40769;51.512;5.494;2023-04-03T00:33:12;5.60;99.90
13808;DHT22;40769;51.512;5.494;2023-04-03T00:35:38;5.40;99.90
13808;DHT22;40769;51.512;5.494;2023-04-03T00:38:04;5.30;99.90
13808;DHT22;40769;51.512;5.494;2023-04-03T00:40:37;5.20;99.90
13808;DHT22;40769;51.512;5.494;2023-04-03T00:43:21;5.10;99.90
13808;DHT22;40769;51.512;5.494;2023-04-03T00:45:51;5.10;99.90
13808;DHT22;40769;51.512;5.494;2023-04-03T00:48:33;5.20;99.90
13808;DHT22;40769;51.512;5.494;2023-04-03T00:51:01;5.10;99.90
13808;DHT22;40769;51.512;5.494;2023-04-03T00:53:43;5.10;99.90
13808;DHT22;40769;51.512;5.494;2023-04-03T00:56:13;4.30;99.90
13808;DHT22;40769;51.512;5.494;2023-04-03T00:58:49;4.80;99.90
13808;DHT22;40769;51.512;5.494;2023-04-03T01:01:24;4.80;99.90
13808;DHT22;40769;51.512;5.494;2023-04-03T01:03:50;4.90;99.90
13808;DHT22;40769;51.512;5.494;2023-04-03T01:06:17;5.90;99.90
13808;DHT22;40769;51.512;5.494;2023-04-03T01:08:47;5.00;99.90
13808;DHT22;40769;51.512;5.494;2023-04-03T01:11:14;5.10;99.90
13808;DHT22;40769;51.512;5.494;2023-04-03T01:13:40;4.90;99.90
13808;DHT22;40769;51.512;5.494;2023-04-03T01:16:06;4.80;99.90
13808;DHT22;40769;51.512;5.494;2023-04-03T01:18:33;4.70;99.90
13808;DHT22;40769;51.512;5.494;2023-04-03T01:23:41;4.70;99.90
13808;DHT22;40769;51.512;5.494;2023-04-03T01:26:08;4.70;99.90
13808;DHT22;40769;51.512;5.494;2023-04-03T01:28:36;4.70;99.90
13808;DHT22;40769;51.512;5.494;2023-04-03T01:31:21;4.70;99.90
13808;DHT22;40769;51.512;5.494;2023-04-03T01:33:48;4.70;99.90
13808;DHT22;40769;51.512;5.494;2023-04-03T01:36:18;4.70;99.90
13808;DHT22;40769;51.512;5.494;2023-04-03T01:38:44;4.60;99.90
13808;DHT22;40769;51.512;5.494;2023-04-03T01:41:09;4.30;99.90
13808;DHT22;40769;51.512;5.494;2023-04-03T01:43:35;4.10;99.90
13808;DHT22;40769;51.512;5.494;2023-04-03T01:46:01;3.90;99.90
13808;DHT22;40769;51.512;5.494;2023-04-03T01:48:26;3.80;99.90
13808;DHT22;40769;51.512;5.494;2023-04-03T01:50:52;3.80;99.90
13808;DHT22;40769;51.512;5.494;2023-04-03T01:53:17;3.80;99.90
13808;DHT22;40769;51.512;5.494;2023-04-03T01:55:43;3.90;99.90
13808;DHT22;40769;51.512;5.494;2023-04-03T01:58:09;3.90;99.90
13808;DHT22;40769;51.512;5.494;2023-04-03T02:00:34;4.00;99.90
13808;DHT22;40769;51.512;5.494;2023-04-03T02:03:01;4.00;99.90
13808;DHT22;40769;51.512;5.494;2023-04-03T02:05:27;4.10;99.90
13808;DHT22;40769;51.512;5.494;2023-04-03T02:07:52;4.10;99.90
13808;DHT22;40769;51.512;5.494;2023-04-03T02:10:18;4.10;99.90
13808;DHT22;40769;51.512;5.494;2023-04-03T02:12:44;4.00;99.90
13808;DHT22;40769;51.512;5.494;2023-04-03T02:15:09;3.90;99.90
13808;DHT22;40769;51.512;5.494;2023-04-03T02:17:35;3.80;99.90
13808;DHT22;40769;51.512;5.494;2023-04-03T02:20:01;3.70;99.90
13808;DHT22;40769;51.512;5.494;2023-04-03T02:22:27;3.60;99.90
13808;DHT22;40769;51.512;5.494;2023-04-03T02:24:52;3.60;99.90
13808;DHT22;40769;51.512;5.494;2023-04-03T02:27:18;3.60;99.90
13808;DHT22;40769;51.512;5.494;2023-04-03T02:29:43;3.50;99.90
13808;DHT22;40769;51.512;5.494;2023-04-03T02:32:09;3.50;99.90
13808;DHT22;40769;51.512;5.494;2023-04-03T02:34:35;3.60;99.90
13808;DHT22;40769;51.512;5.494;2023-04-03T02:37:00;3.70;99.90
13808;DHT22;40769;51.512;5.494;2023-04-03T02:39:26;3.60;99.90
13808;DHT22;40769;51.512;5.494;2023-04-03T02:41:52;3.60;99.90
13808;DHT22;40769;51.512;5.494;2023-04-03T02:44:17;3.40;99.90
13808;DHT22;40769;51.512;5.494;2023-04-03T02:46:44;3.40;99.90
13808;DHT22;40769;51.512;5.494;2023-04-03T02:49:10;3.40;99.90
13808;DHT22;40769;51.512;5.494;2023-04-03T02:51:36;3.50;99.90
13808;DHT22;40769;51.512;5.494;2023-04-03T02:54:01;3.60;99.90
13808;DHT22;40769;51.512;5.494;2023-04-03T02:56:27;3.70;99.90
13808;DHT22;40769;51.512;5.494;2023-04-03T02:58:52;4.00;99.90
13808;DHT22;40769;51.512;5.494;2023-04-03T03:01:18;4.20;99.90
13808;DHT22;40769;51.512;5.494;2023-04-03T03:03:44;4.60;99.90
13808;DHT22;40769;51.512;5.494;2023-04-03T03:06:12;4.80;99.90
13808;DHT22;40769;51.512;5.494;2023-04-03T03:08:38;5.10;99.90
13808;DHT22;40769;51.512;5.494;2023-04-03T03:11:04;5.40;99.90
13808;DHT22;40769;51.512;5.494;2023-04-03T03:13:30;5.70;99.90
13808;DHT22;40769;51.512;5.494;2023-04-03T03:15:56;5.90;99.90
13808;DHT22;40769;51.512;5.494;2023-04-03T03:18:22;6.10;99.90
13808;DHT22;40769;51.512;5.494;2023-04-03T03:20:55;6.20;99.90
13808;DHT22;40769;51.512;5.494;2023-04-03T03:23:23;6.30;99.90
13808;DHT22;40769;51.512;5.494;2023-04-03T03:25:49;6.00;99.90
13808;DHT22;40769;51.512;5.494;2023-04-03T03:28:14;5.80;99.90
13808;DHT22;40769;51.512;5.494;2023-04-03T03:30:40;5.70;99.90
13808;DHT22;40769;51.512;5.494;2023-04-03T03:33:06;5.60;99.90
13808;DHT22;40769;51.512;5.494;2023-04-03T03:35:32;5.50;99.90
13808;DHT22;40769;51.512;5.494;2023-04-03T03:37:58;5.40;99.90
13808;DHT22;40769;51.512;5.494;2023-04-03T03:40:23;5.40;99.90
13808;DHT22;40769;51.512;5.494;2023-04-03T03:42:49;5.40;99.90
13808;DHT22;40769;51.512;5.494;2023-04-03T03:45:15;5.10;99.90
13808;DHT22;40769;51.512;5.494;2023-04-03T03:47:40;4.90;99.90
13808;DHT22;40769;51.512;5.494;2023-04-03T03:50:06;4.70;99.90
13808;DHT22;40769;51.512;5.494;2023-04-03T03:52:32;4.50;99.90
13808;DHT22;40769;51.512;5.494;2023-04-03T03:54:58;4.20;99.90
13808;DHT22;40769;51.512;5.494;2023-04-03T03:57:24;4.00;99.90
13808;DHT22;40769;51.512;5.494;2023-04-03T03:59:52;3.90;99.90
13808;DHT22;40769;51.512;5.494;2023-04-03T04:02:18;3.80;99.90
13808;DHT22;40769;51.512;5.494;2023-04-03T04:04:43;3.80;99.90
13808;DHT22;40769;51.512;5.494;2023-04-03T04:07:09;3.90;99.90
13808;DHT22;40769;51.512;5.494;2023-04-03T04:09:35;4.10;99.90
13808;DHT22;40769;51.512;5.494;2023-04-03T04:12:00;3.90;99.90
13808;DHT22;40769;51.512;5.494;2023-04-03T04:14:26;3.90;99.90
13808;DHT22;40769;51.512;5.494;2023-04-03T04:16:51;4.10;99.90
13808;DHT22;40769;51.512;5.494;2023-04-03T04:19:17;4.00;99.90
13808;DHT22;40769;51.512;5.494;2023-04-03T04:21:43;4.10;99.90
13808;DHT22;40769;51.512;5.494;2023-04-03T04:24:09;4.20;99.90
13808;DHT22;40769;51.512;5.494;2023-04-03T04:26:34;4.20;99.90
13808;DHT22;40769;51.512;5.494;2023-04-03T04:29:00;4.00;99.90
13808;DHT22;40769;51.512;5.494;2023-04-03T04:31:26;3.90;99.90
13808;DHT22;40769;51.512;5.494;2023-04-03T04:33:52;3.90;99.90
13808;DHT22;40769;51.512;5.494;2023-04-03T04:36:18;3.90;99.90
13808;DHT22;40769;51.512;5.494;2023-04-03T04:38:44;3.90;99.90
13808;DHT22;40769;51.512;5.494;2023-04-03T04:41:10;3.80;99.90
13808;DHT22;40769;51.512;5.494;2023-04-03T04:43:35;3.70;99.90
13808;DHT22;40769;51.512;5.494;2023-04-03T04:46:06;3.90;99.90
13808;DHT22;40769;51.512;5.494;2023-04-03T04:48:31;3.60;99.90
13808;DHT22;40769;51.512;5.494;2023-04-03T04:50:57;3.60;99.90
13808;DHT22;40769;51.512;5.494;2023-04-03T04:53:23;3.60;99.90
13808;DHT22;40769;51.512;5.494;2023-04-03T04:55:48;3.50;99.90
13808;DHT22;40769;51.512;5.494;2023-04-03T04:58:14;3.40;99.90
13808;DHT22;40769;51.512;5.494;2023-04-03T05:00:41;3.40;99.90
13808;DHT22;40769;51.512;5.494;2023-04-03T05:03:06;3.30;99.90
13808;DHT22;40769;51.512;5.494;2023-04-03T05:05:32;3.30;99.90
13808;DHT22;40769;51.512;5.494;2023-04-03T05:07:58;3.30;99.90
13808;DHT22;40769;51.512;5.494;2023-04-03T05:10:23;3.30;99.90
13808;DHT22;40769;51.512;5.494;2023-04-03T05:12:49;3.30;99.90
13808;DHT22;40769;51.512;5.494;2023-04-03T05:15:14;3.30;99.90
13808;DHT22;40769;51.512;5.494;2023-04-03T05:17:40;3.30;99.90
13808;DHT22;40769;51.512;5.494;2023-04-03T05:20:06;3.30;99.90
13808;DHT22;40769;51.512;5.494;2023-04-03T05:22:32;3.10;99.90
13808;DHT22;40769;51.512;5.494;2023-04-03T05:24:58;3.30;99.90
13808;DHT22;40769;51.512;5.494;2023-04-03T05:27:23;3.20;99.90
13808;DHT22;40769;51.512;5.494;2023-04-03T05:29:50;3.10;99.90
13808;DHT22;40769;51.512;5.494;2023-04-03T05:32:17;3.10;99.90
13808;DHT22;40769;51.512;5.494;2023-04-03T05:34:43;3.10;99.90
13808;DHT22;40769;51.512;5.494;2023-04-03T05:37:08;3.20;99.90
13808;DHT22;40769;51.512;5.494;2023-04-03T05:39:34;3.20;99.90
13808;DHT22;40769;51.512;5.494;2023-04-03T05:42:00;3.20;99.90
13808;DHT22;40769;51.512;5.494;2023-04-03T05:44:26;3.10;99.90
13808;DHT22;40769;51.512;5.494;2023-04-03T05:46:51;3.10;99.90
13808;DHT22;40769;51.512;5.494;2023-04-03T05:49:17;3.20;99.90
13808;DHT22;40769;51.512;5.494;2023-04-03T05:51:43;3.30;99.90
13808;DHT22;40769;51.512;5.494;2023-04-03T05:54:20;3.30;99.90
13808;DHT22;40769;51.512;5.494;2023-04-03T05:56:48;3.40;99.90
13808;DHT22;40769;51.512;5.494;2023-04-03T05:59:14;3.60;99.90
13808;DHT22;40769;51.512;5.494;2023-04-03T06:01:40;3.60;99.90
13808;DHT22;40769;51.512;5.494;2023-04-03T06:04:06;3.70;99.90
13808;DHT22;40769;51.512;5.494;2023-04-03T06:06:48;3.70;99.90
13808;DHT22;40769;51.512;5.494;2023-04-03T06:09:15;3.80;99.90
13808;DHT22;40769;51.512;5.494;2023-04-03T06:11:42;3.80;99.90
13808;DHT22;40769;51.512;5.494;2023-04-03T06:14:08;3.90;99.90
13808;DHT22;40769;51.512;5.494;2023-04-03T06:16:34;3.90;99.90
13808;DHT22;40769;51.512;5.494;2023-04-03T06:19:00;4.00;99.90
13808;DHT22;40769;51.512;5.494;2023-04-03T06:21:26;4.20;99.90
13808;DHT22;40769;51.512;5.494;2023-04-03T06:23:51;4.40;99.90
13808;DHT22;40769;51.512;5.494;2023-04-03T06:26:17;4.50;99.90
13808;DHT22;40769;51.512;5.494;2023-04-03T06:28:43;4.70;99.90
13808;DHT22;40769;51.512;5.494;2023-04-03T06:31:09;5.00;99.90
13808;DHT22;40769;51.512;5.494;2023-04-03T06:33:34;5.20;99.90
13808;DHT22;40769;51.512;5.494;2023-04-03T06:36:04;5.40;99.90
13808;DHT22;40769;51.512;5.494;2023-04-03T06:38:32;5.70;99.90
13808;DHT22;40769;51.512;5.494;2023-04-03T06:40:58;5.90;99.90
13808;DHT22;40769;51.512;5.494;2023-04-03T06:43:24;6.10;99.90
13808;DHT22;40769;51.512;5.494;2023-04-03T06:45:50;6.30;99.90
13808;DHT22;40769;51.512;5.494;2023-04-03T06:48:16;6.50;99.90
13808;DHT22;40769;51.512;5.494;2023-04-03T06:50:41;6.70;99.90
13808;DHT22;40769;51.512;5.494;2023-04-03T06:53:08;6.90;99.90
13808;DHT22;40769;51.512;5.494;2023-04-03T06:55:34;7.20;99.90
13808;DHT22;40769;51.512;5.494;2023-04-03T06:58:00;7.30;99.90
13808;DHT22;40769;51.512;5.494;2023-04-03T07:00:25;7.50;99.90
13808;DHT22;40769;51.512;5.494;2023-04-03T07:02:51;7.60;99.90
13808;DHT22;40769;51.512;5.494;2023-04-03T07:05:17;7.80;99.90
13808;DHT22;40769;51.512;5.494;2023-04-03T07:07:43;8.10;99.90
13808;DHT22;40769;51.512;5.494;2023-04-03T07:10:09;8.40;99.90
13808;DHT22;40769;51.512;5.494;2023-04-03T07:12:35;8.60;99.90
13808;DHT22;40769;51.512;5.494;2023-04-03T07:15:01;8.80;99.90
13808;DHT22;40769;51.512;5.494;2023-04-03T07:17:27;9.00;99.90
13808;DHT22;40769;51.512;5.494;2023-04-03T07:19:52;9.10;99.90
13808;DHT22;40769;51.512;5.494;2023-04-03T07:22:18;9.30;99.90
13808;DHT22;40769;51.512;5.494;2023-04-03T07:24:44;9.40;99.90
13808;DHT22;40769;51.512;5.494;2023-04-03T07:27:09;9.60;99.90
13808;DHT22;40769;51.512;5.494;2023-04-03T07:29:36;9.70;99.90
13808;DHT22;40769;51.512;5.494;2023-04-03T07:32:02;9.80;99.90
13808;DHT22;40769;51.512;5.494;2023-04-03T07:34:28;10.00;99.90
13808;DHT22;40769;51.512;5.494;2023-04-03T07:36:53;10.20;99.90
13808;DHT22;40769;51.512;5.494;2023-04-03T07:39:19;10.40;99.90
13808;DHT22;40769;51.512;5.494;2023-04-03T07:41:45;10.70;99.90
13808;DHT22;40769;51.512;5.494;2023-04-03T07:44:11;10.90;99.90
13808;DHT22;40769;51.512;5.494;2023-04-03T07:46:37;10.80;99.90
13808;DHT22;40769;51.512;5.494;2023-04-03T07:49:03;10.90;99.90
13808;DHT22;40769;51.512;5.494;2023-04-03T07:51:31;11.00;99.90
13808;DHT22;40769;51.512;5.494;2023-04-03T07:53:57;11.10;99.90
13808;DHT22;40769;51.512;5.494;2023-04-03T07:56:23;11.10;99.90
13808;DHT22;40769;51.512;5.494;2023-04-03T07:58:48;11.20;99.90
13808;DHT22;40769;51.512;5.494;2023-04-03T08:01:14;11.30;99.90
13808;DHT22;40769;51.512;5.494;2023-04-03T08:03:40;11.40;99.90
13808;DHT22;40769;51.512;5.494;2023-04-03T08:06:07;11.40;99.90
13808;DHT22;40769;51.512;5.494;2023-04-03T08:08:34;11.50;99.90
13808;DHT22;40769;51.512;5.494;2023-04-03T08:11:00;11.50;99.90
13808;DHT22;40769;51.512;5.494;2023-04-03T08:13:28;11.60;99.90
13808;DHT22;40769;51.512;5.494;2023-04-03T08:15:54;11.70;99.90
13808;DHT22;40769;51.512;5.494;2023-04-03T08:18:21;11.80;99.90
13808;DHT22;40769;51.512;5.494;2023-04-03T08:20:50;11.90;99.90
13808;DHT22;40769;51.512;5.494;2023-04-03T08:23:17;12.00;99.90
13808;DHT22;40769;51.512;5.494;2023-04-03T08:25:43;12.20;99.90
13808;DHT22;40769;51.512;5.494;2023-04-03T08:28:12;12.50;99.90
13808;DHT22;40769;51.512;5.494;2023-04-03T08:30:41;12.40;99.90
13808;DHT22;40769;51.512;5.494;2023-04-03T08:33:08;12.60;99.90
13808;DHT22;40769;51.512;5.494;2023-04-03T08:35:39;12.70;99.90
13808;DHT22;40769;51.512;5.494;2023-04-03T08:38:06;12.90;99.90
13808;DHT22;40769;51.512;5.494;2023-04-03T08:40:31;13.00;99.90
13808;DHT22;40769;51.512;5.494;2023-04-03T08:43:27;13.20;99.90
13808;DHT22;40769;51.512;5.494;2023-04-03T08:46:00;13.30;99.90
13808;DHT22;40769;51.512;5.494;2023-04-03T08:48:34;13.50;99.90
13808;DHT22;40769;51.512;5.494;2023-04-03T08:51:04;13.70;99.90
13808;DHT22;40769;51.512;5.494;2023-04-03T08:53:34;13.70;99.90
13808;DHT22;40769;51.512;5.494;2023-04-03T08:56:05;13.80;99.90
13808;DHT22;40769;51.512;5.494;2023-04-03T08:58:42;13.90;99.90
13808;DHT22;40769;51.512;5.494;2023-04-03T09:01:25;14.00;99.90
13808;DHT22;40769;51.512;5.494;2023-04-03T09:03:52;14.10;99.90
13808;DHT22;40769;51.512;5.494;2023-04-03T09:06:25;14.10;99.90
13808;DHT22;40769;51.512;5.494;2023-04-03T09:17:50;14.40;99.90
13808;DHT22;40769;51.512;5.494;2023-04-03T09:20:39;14.50;99.90
13808;DHT22;40769;51.512;5.494;2023-04-03T09:23:31;14.60;99.90
13808;DHT22;40769;51.512;5.494;2023-04-03T09:26:05;14.70;99.90
13808;DHT22;40769;51.512;5.494;2023-04-03T09:28:40;14.70;99.90
13808;DHT22;40769;51.512;5.494;2023-04-03T09:31:22;15.00;99.90
13808;DHT22;40769;51.512;5.494;2023-04-03T09:34:01;15.10;99.90
13808;DHT22;40769;51.512;5.494;2023-04-03T09:36:46;15.30;99.90
13808;DHT22;40769;51.512;5.494;2023-04-03T09:39:19;15.40;99.90
13808;DHT22;40769;51.512;5.494;2023-04-03T09:44:35;15.50;99.90
13808;DHT22;40769;51.512;5.494;2023-04-03T09:47:25;15.50;99.90
13808;DHT22;40769;51.512;5.494;2023-04-03T09:49:51;15.70;99.90
13808;DHT22;40769;51.512;5.494;2023-04-03T09:52:34;15.80;99.90
13808;DHT22;40769;51.512;5.494;2023-04-03T09:55:24;15.90;99.90
13808;DHT22;40769;51.512;5.494;2023-04-03T09:57:57;15.90;99.90
13808;DHT22;40769;51.512;5.494;2023-04-03T10:00:31;16.00;99.90
13808;DHT22;40769;51.512;5.494;2023-04-03T10:02:59;16.10;99.90
13808;DHT22;40769;51.512;5.494;2023-04-03T10:05:42;16.20;99.90
13808;DHT22;40769;51.512;5.494;2023-04-03T10:10:37;16.20;99.90
13808;DHT22;40769;51.512;5.494;2023-04-03T10:13:20;16.20;99.90
13808;DHT22;40769;51.512;5.494;2023-04-03T10:16:02;16.30;99.90
13808;DHT22;40769;51.512;5.494;2023-04-03T10:19:12;16.20;99.90
13808;DHT22;40769;51.512;5.494;2023-04-03T10:21:46;16.10;99.90
13808;DHT22;40769;51.512;5.494;2023-04-03T10:24:23;16.00;99.90
13808;DHT22;40769;51.512;5.494;2023-04-03T10:27:14;16.00;99.90
13808;DHT22;40769;51.512;5.494;2023-04-03T10:38:37;15.80;99.90
13808;DHT22;40769;51.512;5.494;2023-04-03T10:44:36;15.70;99.90
13808;DHT22;40769;51.512;5.494;2023-04-03T10:50:20;15.80;99.90
13808;DHT22;40769;51.512;5.494;2023-04-03T10:52:55;15.80;99.90
13808;DHT22;40769;51.512;5.494;2023-04-03T10:57:53;15.90;99.90
13808;DHT22;40769;51.512;5.494;2023-04-03T11:00:35;16.00;99.90
13808;DHT22;40769;51.512;5.494;2023-04-03T11:03:11;16.10;99.90
13808;DHT22;40769;51.512;5.494;2023-04-03T11:05:47;16.20;99.90
13808;DHT22;40769;51.512;5.494;2023-04-03T11:08:26;16.40;99.90
13808;DHT22;40769;51.512;5.494;2023-04-03T11:10:57;16.40;99.90
13808;DHT22;40769;51.512;5.494;2023-04-03T11:13:34;16.50;99.90
13808;DHT22;40769;51.512;5.494;2023-04-03T11:16:03;16.50;99.90
13808;DHT22;40769;51.512;5.494;2023-04-03T11:18:43;16.50;99.90
13808;DHT22;40769;51.512;5.494;2023-04-03T11:21:13;16.60;99.90
13808;DHT22;40769;51.512;5.494;2023-04-03T11:23:41;16.60;99.90
13808;DHT22;40769;51.512;5.494;2023-04-03T11:26:19;16.60;99.90
13808;DHT22;40769;51.512;5.494;2023-04-03T11:28:46;16.50;99.90
13808;DHT22;40769;51.512;5.494;2023-04-03T11:31:24;16.50;99.90
13808;DHT22;40769;51.512;5.494;2023-04-03T11:36:45;16.30;99.90
13808;DHT22;40769;51.512;5.494;2023-04-03T11:39:34;16.60;99.90
13808;DHT22;40769;51.512;5.494;2023-04-03T11:42:22;16.70;99.90
13808;DHT22;40769;51.512;5.494;2023-04-03T11:44:48;16.80;99.90
13808;DHT22;40769;51.512;5.494;2023-04-03T11:47:44;16.80;99.90
13808;DHT22;40769;51.512;5.494;2023-04-03T12:01:07;17.20;99.90
13808;DHT22;40769;51.512;5.494;2023-04-03T12:16:28;17.40;99.90
13808;DHT22;40769;51.512;5.494;2023-04-03T12:33:03;17.60;99.90
13808;DHT22;40769;51.512;5.494;2023-04-03T12:35:37;17.70;99.90
13808;DHT22;40769;51.512;5.494;2023-04-03T12:46:19;17.70;99.90
13808;DHT22;40769;51.512;5.494;2023-04-03T12:48:52;17.60;99.90
13808;DHT22;40769;51.512;5.494;2023-04-03T12:51:35;17.50;99.90
13808;DHT22;40769;51.512;5.494;2023-04-03T12:54:17;17.50;99.90
13808;DHT22;40769;51.512;5.494;2023-04-03T12:56:44;17.50;99.90
13808;DHT22;40769;51.512;5.494;2023-04-03T12:59:15;17.40;99.90
13808;DHT22;40769;51.512;5.494;2023-04-03T13:01:41;17.40;99.90
13808;DHT22;40769;51.512;5.494;2023-04-03T13:04:07;17.20;99.90
13808;DHT22;40769;51.512;5.494;2023-04-03T13:06:43;17.30;99.90
13808;DHT22;40769;51.512;5.494;2023-04-03T13:12:19;17.20;99.90
13808;DHT22;40769;51.512;5.494;2023-04-03T13:14:57;17.20;99.90
13808;DHT22;40769;51.512;5.494;2023-04-03T13:17:25;17.20;99.90
13808;DHT22;40769;51.512;5.494;2023-04-03T13:19:51;17.20;99.90
13808;DHT22;40769;51.512;5.494;2023-04-03T13:25:00;17.20;99.90
13808;DHT22;40769;51.512;5.494;2023-04-03T13:27:28;17.20;99.90
13808;DHT22;40769;51.512;5.494;2023-04-03T13:29:58;17.20;99.90
13808;DHT22;40769;51.512;5.494;2023-04-03T13:32:26;17.20;99.90
13808;DHT22;40769;51.512;5.494;2023-04-03T13:34:53;17.30;99.90
13808;DHT22;40769;51.512;5.494;2023-04-03T13:37:28;17.40;99.90
13808;DHT22;40769;51.512;5.494;2023-04-03T13:40:11;17.40;99.90
13808;DHT22;40769;51.512;5.494;2023-04-03T13:42:39;17.50;99.90
13808;DHT22;40769;51.512;5.494;2023-04-03T13:47:41;17.50;99.90
13808;DHT22;40769;51.512;5.494;2023-04-03T13:53:00;17.60;99.90
13808;DHT22;40769;51.512;5.494;2023-04-03T13:55:32;17.70;99.90
13808;DHT22;40769;51.512;5.494;2023-04-03T13:58:19;17.70;99.90
13808;DHT22;40769;51.512;5.494;2023-04-03T14:03:24;17.70;99.90
13808;DHT22;40769;51.512;5.494;2023-04-03T14:05:50;17.70;99.90
13808;DHT22;40769;51.512;5.494;2023-04-03T14:08:17;17.60;99.90
13808;DHT22;40769;51.512;5.494;2023-04-03T14:10:43;17.60;99.90
13808;DHT22;40769;51.512;5.494;2023-04-03T14:13:14;17.60;99.90
13808;DHT22;40769;51.512;5.494;2023-04-03T14:15:40;17.60;99.90
13808;DHT22;40769;51.512;5.494;2023-04-03T14:18:11;17.50;99.90
13808;DHT22;40769;51.512;5.494;2023-04-03T14:20:37;17.50;99.90
13808;DHT22;40769;51.512;5.494;2023-04-03T14:23:02;17.50;99.90
13808;DHT22;40769;51.512;5.494;2023-04-03T14:25:28;17.50;99.90
13808;DHT22;40769;51.512;5.494;2023-04-03T14:27:55;17.60;99.90
13808;DHT22;40769;51.512;5.494;2023-04-03T14:30:30;17.60;99.90
13808;DHT22;40769;51.512;5.494;2023-04-03T14:32:57;17.60;99.90
13808;DHT22;40769;51.512;5.494;2023-04-03T14:35:23;17.60;99.90
13808;DHT22;40769;51.512;5.494;2023-04-03T14:37:51;17.50;99.90
13808;DHT22;40769;51.512;5.494;2023-04-03T14:40:26;17.50;99.90
13808;DHT22;40769;51.512;5.494;2023-04-03T14:42:53;17.50;99.90
13808;DHT22;40769;51.512;5.494;2023-04-03T14:45:21;17.50;99.90
13808;DHT22;40769;51.512;5.494;2023-04-03T14:47:50;17.50;99.90
13808;DHT22;40769;51.512;5.494;2023-04-03T14:50:19;17.50;99.90
13808;DHT22;40769;51.512;5.494;2023-04-03T14:52:46;17.60;99.90
13808;DHT22;40769;51.512;5.494;2023-04-03T14:55:16;17.60;99.90
13808;DHT22;40769;51.512;5.494;2023-04-03T14:57:43;17.70;99.90
13808;DHT22;40769;51.512;5.494;2023-04-03T15:00:20;17.80;99.90
13808;DHT22;40769;51.512;5.494;2023-04-03T15:02:47;17.90;99.90
13808;DHT22;40769;51.512;5.494;2023-04-03T15:05:13;17.90;99.90
13808;DHT22;40769;51.512;5.494;2023-04-03T15:07:48;17.80;99.90
13808;DHT22;40769;51.512;5.494;2023-04-03T15:10:19;17.80;99.10
13808;DHT22;40769;51.512;5.494;2023-04-03T15:12:47;17.70;99.90
13808;DHT22;40769;51.512;5.494;2023-04-03T15:15:14;17.70;99.90
13808;DHT22;40769;51.512;5.494;2023-04-03T15:17:41;17.60;99.90
13808;DHT22;40769;51.512;5.494;2023-04-03T15:20:33;17.70;99.90
13808;DHT22;40769;51.512;5.494;2023-04-03T15:23:00;17.60;99.40
13808;DHT22;40769;51.512;5.494;2023-04-03T15:25:30;17.60;99.90
13808;DHT22;40769;51.512;5.494;2023-04-03T15:27:57;17.60;99.90
13808;DHT22;40769;51.512;5.494;2023-04-03T15:30:23;17.60;99.90
13808;DHT22;40769;51.512;5.494;2023-04-03T15:32:48;17.60;99.90
13808;DHT22;40769;51.512;5.494;2023-04-03T15:35:15;17.60;99.90
13808;DHT22;40769;51.512;5.494;2023-04-03T15:37:41;17.80;99.90
13808;DHT22;40769;51.512;5.494;2023-04-03T15:40:07;17.70;99.90
13808;DHT22;40769;51.512;5.494;2023-04-03T15:42:33;17.70;99.90
13808;DHT22;40769;51.512;5.494;2023-04-03T15:44:59;17.80;99.90
13808;DHT22;40769;51.512;5.494;2023-04-03T15:47:26;17.90;99.90
13808;DHT22;40769;51.512;5.494;2023-04-03T15:49:53;17.90;99.90
13808;DHT22;40769;51.512;5.494;2023-04-03T15:52:19;18.00;99.90
13808;DHT22;40769;51.512;5.494;2023-04-03T15:54:45;18.00;99.90
13808;DHT22;40769;51.512;5.494;2023-04-03T15:57:11;18.00;99.90
13808;DHT22;40769;51.512;5.494;2023-04-03T15:59:36;18.00;99.90
13808;DHT22;40769;51.512;5.494;2023-04-03T16:02:04;18.00;99.90
13808;DHT22;40769;51.512;5.494;2023-04-03T16:04:30;18.00;99.90
13808;DHT22;40769;51.512;5.494;2023-04-03T16:06:56;17.90;99.90
13808;DHT22;40769;51.512;5.494;2023-04-03T16:09:22;18.00;99.90
13808;DHT22;40769;51.512;5.494;2023-04-03T16:11:47;18.00;99.90
13808;DHT22;40769;51.512;5.494;2023-04-03T16:14:13;18.00;99.90
13808;DHT22;40769;51.512;5.494;2023-04-03T16:16:39;18.00;99.90
13808;DHT22;40769;51.512;5.494;2023-04-03T16:19:05;18.00;99.90
13808;DHT22;40769;51.512;5.494;2023-04-03T16:21:37;18.00;99.90
13808;DHT22;40769;51.512;5.494;2023-04-03T16:24:03;17.90;98.50
13808;DHT22;40769;51.512;5.494;2023-04-03T16:26:29;17.90;99.90
13808;DHT22;40769;51.512;5.494;2023-04-03T16:28:54;17.80;99.90
13808;DHT22;40769;51.512;5.494;2023-04-03T16:31:20;17.70;99.90
13808;DHT22;40769;51.512;5.494;2023-04-03T16:33:46;17.50;99.80
13808;DHT22;40769;51.512;5.494;2023-04-03T16:36:12;17.50;99.60
13808;DHT22;40769;51.512;5.494;2023-04-03T16:38:38;17.20;99.40
13808;DHT22;40769;51.512;5.494;2023-04-03T16:41:03;17.00;99.50
13808;DHT22;40769;51.512;5.494;2023-04-03T16:43:33;16.90;99.30
13808;DHT22;40769;51.512;5.494;2023-04-03T16:46:00;16.80;97.90
13808;DHT22;40769;51.512;5.494;2023-04-03T16:48:28;16.70;98.70
13808;DHT22;40769;51.512;5.494;2023-04-03T16:50:53;16.50;98.90
13808;DHT22;40769;51.512;5.494;2023-04-03T16:53:20;16.40;99.10
13808;DHT22;40769;51.512;5.494;2023-04-03T16:55:46;16.30;98.90
13808;DHT22;40769;51.512;5.494;2023-04-03T16:58:11;16.20;98.80
13808;DHT22;40769;51.512;5.494;2023-04-03T17:00:37;16.00;98.30
13808;DHT22;40769;51.512;5.494;2023-04-03T17:03:03;15.90;98.10
13808;DHT22;40769;51.512;5.494;2023-04-03T17:05:29;15.80;98.00
13808;DHT22;40769;51.512;5.494;2023-04-03T17:07:54;15.60;98.40
13808;DHT22;40769;51.512;5.494;2023-04-03T17:10:21;15.50;98.50
13808;DHT22;40769;51.512;5.494;2023-04-03T17:12:46;15.40;98.60
13808;DHT22;40769;51.512;5.494;2023-04-03T17:15:12;15.40;98.90
13808;DHT22;40769;51.512;5.494;2023-04-03T17:17:38;15.30;98.40
13808;DHT22;40769;51.512;5.494;2023-04-03T17:20:04;15.10;97.90
13808;DHT22;40769;51.512;5.494;2023-04-03T17:22:30;14.90;97.40
13808;DHT22;40769;51.512;5.494;2023-04-03T17:24:57;14.60;96.90